Time;durP1;ratioP1;P1;durP2;ratioP2;P2;SDS_P1;SDS_P2;PMS_P1;PMS_P2;Temp;Humidity;BMP_temperature;BMP_pressure;BME280_temperature;BME280_humidity;BME280_pressure;Samples;Min_cycle;Max_cycle;Signal;HPM_P1;HPM_P2
2021/07/14 00:01:58;;;;;;;569.88;136.10;;;19.50;99.90;;;;;;4940936;28;20018;-90
2021/07/14 00:04:23;;;;;;;834.70;154.60;;;19.40;99.90;;;;;;4953732;28;20459;-88
2021/07/14 00:06:49;;;;;;;657.10;142.38;;;19.50;99.90;;;;;;4953460;28;20118;-90
2021/07/14 00:09:15;;;;;;;728.53;147.80;;;19.40;99.90;;;;;;4953359;28;20055;-90
2021/07/14 00:11:44;;;;;;;767.20;147.48;;;19.50;99.90;;;;;;4934852;29;20122;-90
2021/07/14 00:17:22;;;;;;;786.22;155.48;;;19.40;99.90;;;;;;4950406;29;20035;-89
2021/07/14 00:22:33;;;;;;;867.45;153.73;;;19.50;99.90;;;;;;4950192;29;20105;-89
2021/07/14 00:24:59;;;;;;;705.03;140.85;;;19.40;99.90;;;;;;4950319;29;20035;-89
2021/07/14 00:27:25;;;;;;;722.63;145.48;;;19.40;99.90;;;;;;4950189;29;20039;-88
2021/07/14 00:29:55;;;;;;;632.25;136.15;;;19.40;99.90;;;;;;4934309;29;20434;-89
2021/07/14 00:32:21;;;;;;;720.45;135.70;;;19.40;99.90;;;;;;4935601;28;20723;-89
2021/07/14 00:34:47;;;;;;;671.70;139.23;;;19.40;99.90;;;;;;4937812;28;20027;-88
2021/07/14 00:37:13;;;;;;;879.90;158.70;;;19.40;99.90;;;;;;4936983;28;20038;-87
2021/07/14 00:39:39;;;;;;;924.65;154.52;;;19.40;99.90;;;;;;4936797;28;20031;-88
2021/07/14 00:42:05;;;;;;;970.05;164.13;;;19.40;99.90;;;;;;4950428;28;20041;-86
2021/07/14 00:44:31;;;;;;;914.78;154.35;;;19.40;99.90;;;;;;4964898;28;20030;-88
2021/07/14 00:46:56;;;;;;;942.85;173.70;;;19.40;99.90;;;;;;4957670;28;20089;-86
2021/07/14 00:49:22;;;;;;;738.45;145.35;;;19.40;99.90;;;;;;4949316;29;20031;-87
2021/07/14 00:51:47;;;;;;;996.00;174.88;;;19.40;99.90;;;;;;4949594;29;20038;-87
2021/07/14 00:54:13;;;;;;;1203.82;182.65;;;19.30;99.90;;;;;;4933654;28;20024;-87
2021/07/14 00:56:40;;;;;;;920.80;172.80;;;19.30;99.90;;;;;;4936409;28;20038;-87
2021/07/14 00:59:05;;;;;;;924.65;164.52;;;19.30;99.90;;;;;;4935931;28;20027;-87
2021/07/14 01:01:31;;;;;;;1078.97;170.88;;;19.30;99.90;;;;;;4968258;28;20039;-87
2021/07/14 01:04:06;;;;;;;967.65;177.55;;;19.30;99.90;;;;;;4952724;28;20405;-87
2021/07/14 01:06:36;;;;;;;800.30;162.85;;;19.30;99.90;;;;;;4952894;28;20037;-87
2021/07/14 01:09:03;;;;;;;923.40;165.70;;;19.30;99.90;;;;;;4947574;29;20038;-86
2021/07/14 01:11:31;;;;;;;747.65;151.23;;;19.30;99.90;;;;;;4929078;29;20051;-88
2021/07/14 01:14:23;;;;;;;826.88;155.93;;;19.30;99.90;;;;;;4967424;28;20035;-87
2021/07/14 01:17:11;;;;;;;819.97;161.13;;;19.30;99.90;;;;;;4937523;28;20134;-87
2021/07/14 01:20:07;;;;;;;882.13;163.38;;;19.30;99.90;;;;;;4938157;28;20401;-88
2021/07/14 01:22:41;;;;;;;887.85;161.48;;;19.30;99.90;;;;;;4967957;28;20848;-88
2021/07/14 01:25:12;;;;;;;913.10;171.18;;;19.30;99.90;;;;;;4968151;28;20501;-89
2021/07/14 01:27:38;;;;;;;893.55;168.90;;;19.20;99.90;;;;;;4933660;28;20102;-87
2021/07/14 01:30:10;;;;;;;837.28;152.30;;;19.30;99.90;;;;;;4916990;29;20030;-89
2021/07/14 01:32:36;;;;;;;936.50;162.57;;;19.30;99.90;;;;;;4917316;29;20058;-89
2021/07/14 01:35:06;;;;;;;943.40;166.20;;;19.30;99.90;;;;;;4923499;28;20394;-89
2021/07/14 01:37:32;;;;;;;802.40;161.48;;;19.30;99.90;;;;;;4948240;29;20038;-89
2021/07/14 01:39:58;;;;;;;821.25;155.85;;;19.30;99.90;;;;;;4967919;28;20034;-90
2021/07/14 01:42:25;;;;;;;816.03;156.52;;;19.30;99.90;;;;;;4951597;28;20030;-90
2021/07/14 01:44:51;;;;;;;751.65;153.63;;;19.20;99.90;;;;;;4948651;28;20039;-89
2021/07/14 01:47:17;;;;;;;844.03;153.63;;;19.30;99.90;;;;;;4932197;29;20031;-88
2021/07/14 01:49:42;;;;;;;735.13;155.68;;;19.30;99.90;;;;;;4932410;29;20034;-91
2021/07/14 01:52:18;;;;;;;816.85;159.90;;;19.30;99.90;;;;;;4932167;29;20032;-90
2021/07/14 01:54:44;;;;;;;814.83;148.13;;;19.30;99.90;;;;;;4952726;28;20024;-90
2021/07/14 01:57:10;;;;;;;907.70;166.75;;;19.30;99.90;;;;;;4966754;28;20038;-91
2021/07/14 01:59:36;;;;;;;786.55;147.50;;;19.30;99.90;;;;;;4951444;28;20557;-91
2021/07/14 02:02:03;;;;;;;855.60;159.63;;;19.30;99.90;;;;;;4935565;28;20031;-91
2021/07/14 02:04:31;;;;;;;680.13;145.98;;;19.30;99.90;;;;;;4936098;28;20089;-91
2021/07/14 02:06:57;;;;;;;611.97;140.38;;;19.30;99.90;;;;;;4932514;28;20031;-91
2021/07/14 02:09:23;;;;;;;865.17;159.68;;;19.30;99.90;;;;;;4947712;29;20062;-91
2021/07/14 02:11:50;;;;;;;869.00;162.48;;;19.20;99.90;;;;;;4947357;29;20063;-91
2021/07/14 02:14:18;;;;;;;826.08;162.45;;;19.30;99.90;;;;;;4947872;29;20130;-90
2021/07/14 02:16:44;;;;;;;746.88;148.23;;;19.30;99.90;;;;;;4916231;29;20623;-90
2021/07/14 02:19:10;;;;;;;992.05;169.93;;;19.20;99.90;;;;;;4916271;29;20047;-91
2021/07/14 02:21:35;;;;;;;679.47;143.65;;;19.30;99.90;;;;;;4932608;29;20039;-90
2021/07/14 02:24:01;;;;;;;755.67;145.93;;;19.30;99.90;;;;;;4916845;29;20066;-92
2021/07/14 02:26:30;;;;;;;738.53;148.95;;;19.20;99.90;;;;;;4922516;28;20125;-91
2021/07/14 02:28:55;;;;;;;831.35;159.95;;;19.20;99.90;;;;;;4934916;28;20031;-90
2021/07/14 02:31:21;;;;;;;645.38;139.25;;;19.30;99.90;;;;;;4935149;28;20031;-90
2021/07/14 02:33:46;;;;;;;630.40;134.30;;;19.20;99.90;;;;;;4932080;29;20211;-89
2021/07/14 02:36:13;;;;;;;862.53;162.30;;;19.20;99.90;;;;;;4948335;28;20481;-91
2021/07/14 02:38:44;;;;;;;831.17;154.55;;;19.20;99.90;;;;;;4926579;28;20383;-91
2021/07/14 02:41:11;;;;;;;605.53;135.10;;;19.20;99.90;;;;;;4954638;28;20037;-91
2021/07/14 02:43:37;;;;;;;810.70;149.80;;;19.20;99.90;;;;;;4954777;28;20033;-91
2021/07/14 02:46:11;;;;;;;776.88;153.35;;;19.20;99.90;;;;;;4938963;28;20026;-89
2021/07/14 02:48:37;;;;;;;848.60;159.43;;;19.20;99.90;;;;;;4939501;28;20090;-90
2021/07/14 02:51:02;;;;;;;882.35;156.55;;;19.20;99.90;;;;;;4938813;28;20034;-91
2021/07/14 02:53:32;;;;;;;677.13;135.55;;;19.20;99.90;;;;;;4938807;28;20073;-91
2021/07/14 02:56:03;;;;;;;889.20;152.90;;;19.20;99.90;;;;;;4935931;29;20113;-91
2021/07/14 02:58:29;;;;;;;886.72;163.82;;;19.20;99.90;;;;;;4935298;29;20031;-90
2021/07/14 03:00:56;;;;;;;942.75;167.18;;;19.20;99.90;;;;;;4951233;29;20035;-90
2021/07/14 03:03:22;;;;;;;827.08;156.48;;;19.20;99.90;;;;;;4935553;29;20458;-90
2021/07/14 03:05:48;;;;;;;897.92;166.75;;;19.20;99.90;;;;;;4935091;29;20042;-91
2021/07/14 03:08:14;;;;;;;828.17;162.93;;;19.20;99.90;;;;;;4935039;29;20031;-89
2021/07/14 03:10:43;;;;;;;905.22;168.60;;;19.20;99.90;;;;;;4919529;28;20058;-91
2021/07/14 03:13:09;;;;;;;702.38;143.98;;;19.20;99.90;;;;;;4936098;29;20027;-91
2021/07/14 03:15:36;;;;;;;747.20;151.30;;;19.20;99.90;;;;;;4935006;28;20037;-91
2021/07/14 03:18:03;;;;;;;745.85;148.02;;;19.20;99.90;;;;;;4951113;28;20545;-90
2021/07/14 03:20:28;;;;;;;780.72;151.52;;;19.20;99.90;;;;;;4944150;28;20030;-89
2021/07/14 03:22:54;;;;;;;768.08;149.30;;;19.20;99.90;;;;;;4920682;29;20486;-90
2021/07/14 03:25:19;;;;;;;888.92;160.10;;;19.20;99.90;;;;;;4950598;29;20042;-89
2021/07/14 03:27:46;;;;;;;799.50;154.60;;;19.20;99.90;;;;;;4944164;29;20450;-88
2021/07/14 03:30:12;;;;;;;736.97;149.95;;;19.20;99.90;;;;;;4950568;28;20187;-91
2021/07/14 03:32:43;;;;;;;888.45;149.88;;;19.20;99.90;;;;;;4938006;28;20421;-90
2021/07/14 03:35:09;;;;;;;;;;;19.20;99.90;;;;;;4935936;28;20034;-91
2021/07/14 03:37:36;;;;;;;891.45;144.93;;;19.20;99.90;;;;;;4950493;29;19910;-91
2021/07/14 03:40:04;;;;;;;738.90;143.32;;;19.20;99.90;;;;;;4950395;29;20441;-91
2021/07/14 03:42:30;;;;;;;766.15;141.43;;;19.20;99.90;;;;;;4950576;28;20459;-90
2021/07/14 03:44:56;;;;;;;665.05;129.85;;;19.20;99.90;;;;;;4950963;28;20043;-89
2021/07/14 03:47:22;;;;;;;752.17;142.25;;;19.10;99.90;;;;;;4939851;28;20109;-90
2021/07/14 03:49:47;;;;;;;839.03;150.77;;;19.10;99.90;;;;;;4960868;28;20110;-90
2021/07/14 03:52:17;;;;;;;782.17;145.60;;;19.10;99.90;;;;;;4937350;28;20029;-89
2021/07/14 03:54:43;;;;;;;801.83;140.98;;;19.20;99.90;;;;;;4935944;28;20398;-89
2021/07/14 03:57:09;;;;;;;663.35;135.25;;;19.10;99.90;;;;;;4927942;29;20037;-91
2021/07/14 03:59:36;;;;;;;741.90;136.10;;;19.20;99.90;;;;;;4926326;28;20024;-88
2021/07/14 04:02:01;;;;;;;809.75;143.90;;;19.10;99.90;;;;;;4937904;29;20061;-89
2021/07/14 04:04:27;;;;;;;583.85;125.65;;;19.10;99.90;;;;;;4934806;29;20491;-88
2021/07/14 04:06:57;;;;;;;671.47;126.00;;;19.10;99.90;;;;;;4938393;28;20450;-90
2021/07/14 04:09:23;;;;;;;668.38;131.48;;;19.10;99.90;;;;;;4934134;29;20046;-89
2021/07/14 04:11:54;;;;;;;620.40;127.05;;;19.10;99.90;;;;;;4934663;29;20031;-89
2021/07/14 04:14:22;;;;;;;702.95;135.43;;;19.10;99.90;;;;;;4920704;28;20035;-89
2021/07/14 04:16:48;;;;;;;704.15;133.43;;;19.10;99.90;;;;;;4953764;28;20039;-89
2021/07/14 04:19:13;;;;;;;701.97;130.57;;;19.10;99.90;;;;;;4950428;29;20033;-89
2021/07/14 04:21:39;;;;;;;726.22;135.85;;;19.10;99.90;;;;;;4943199;28;20057;-90
2021/07/14 04:24:07;;;;;;;623.05;120.88;;;19.10;99.90;;;;;;4933862;29;20031;-89
2021/07/14 04:26:33;;;;;;;641.13;123.22;;;19.20;99.90;;;;;;4963410;28;20113;-90
2021/07/14 04:28:59;;;;;;;595.33;122.15;;;19.20;99.90;;;;;;4953252;28;20129;-90
2021/07/14 04:31:24;;;;;;;706.20;126.88;;;19.10;99.90;;;;;;4937171;28;20030;-89
2021/07/14 04:33:50;;;;;;;721.28;126.13;;;19.10;99.90;;;;;;4986080;23;20059;-88
2021/07/14 04:36:15;;;;;;;664.08;124.32;;;19.20;99.90;;;;;;4917236;29;20624;-89
2021/07/14 04:38:41;;;;;;;615.03;116.88;;;19.10;99.90;;;;;;4933967;29;20050;-89
2021/07/14 04:41:07;;;;;;;644.50;120.28;;;19.10;99.90;;;;;;4933675;29;20106;-89
2021/07/14 04:43:32;;;;;;;716.60;129.23;;;19.10;99.90;;;;;;4933911;29;20036;-89
2021/07/14 04:46:00;;;;;;;583.30;112.50;;;19.10;99.90;;;;;;4949707;29;20038;-90
2021/07/14 04:48:26;;;;;;;677.97;120.32;;;19.10;99.90;;;;;;4949341;29;20070;-91
2021/07/14 04:50:51;;;;;;;719.75;119.63;;;19.10;99.90;;;;;;4965650;28;20721;-90
2021/07/14 04:53:17;;;;;;;711.55;127.32;;;19.10;99.90;;;;;;4946198;29;20036;-89
2021/07/14 04:55:43;;;;;;;584.50;117.03;;;19.20;99.90;;;;;;4914310;29;20032;-89
2021/07/14 04:58:08;;;;;;;703.40;121.53;;;19.10;99.90;;;;;;4913646;29;20035;-89
2021/07/14 05:00:34;;;;;;;759.90;122.70;;;19.10;99.90;;;;;;4930255;29;20035;-90
2021/07/14 05:02:59;;;;;;;724.55;122.70;;;19.10;99.90;;;;;;4914398;29;20038;-90
2021/07/14 05:05:25;;;;;;;549.08;111.25;;;19.10;99.90;;;;;;4941047;29;20035;-89
2021/07/14 05:07:51;;;;;;;703.33;122.45;;;19.10;99.90;;;;;;4916631;29;20027;-89
2021/07/14 05:10:20;;;;;;;668.00;113.53;;;19.10;99.90;;;;;;4933269;29;20062;-89
2021/07/14 05:12:46;;;;;;;561.03;108.38;;;19.10;99.90;;;;;;4917611;29;20027;-89
2021/07/14 05:15:12;;;;;;;583.45;109.32;;;19.10;99.90;;;;;;4916983;29;20443;-90
2021/07/14 05:17:37;;;;;;;562.47;103.63;;;19.10;99.90;;;;;;4917066;29;20038;-89
2021/07/14 05:20:05;;;;;;;610.65;107.95;;;19.10;99.90;;;;;;4932566;29;20035;-89
2021/07/14 05:22:30;;;;;;;429.98;92.38;;;19.10;99.90;;;;;;4916454;29;20027;-89
2021/07/14 05:24:56;;;;;;;598.03;110.55;;;19.10;99.90;;;;;;4917422;29;20406;-89
2021/07/14 05:27:21;;;;;;;570.95;102.25;;;19.10;99.90;;;;;;4917025;29;20038;-88
2021/07/14 05:29:47;;;;;;;519.30;99.82;;;19.10;99.90;;;;;;4917170;29;20023;-90
2021/07/14 05:32:12;;;;;;;498.10;94.80;;;19.10;99.90;;;;;;4917008;29;20035;-90
2021/07/14 05:34:38;;;;;;;618.03;107.93;;;19.10;99.90;;;;;;4916882;29;20413;-90
2021/07/14 05:37:03;;;;;;;505.58;96.50;;;19.10;99.90;;;;;;4917452;29;20687;-89
2021/07/14 05:39:29;;;;;;;485.52;94.07;;;19.10;99.90;;;;;;4917152;29;20043;-90
2021/07/14 05:41:54;;;;;;;514.53;95.93;;;19.00;99.90;;;;;;4932651;29;20031;-89
2021/07/14 05:44:20;;;;;;;603.67;104.47;;;19.00;99.90;;;;;;4932869;29;20046;-89
2021/07/14 05:46:46;;;;;;;461.92;92.57;;;19.10;99.90;;;;;;4916707;29;20035;-89
2021/07/14 05:49:11;;;;;;;514.22;97.78;;;19.10;99.90;;;;;;4932456;29;20031;-89
2021/07/14 05:51:37;;;;;;;499.90;97.72;;;19.00;99.90;;;;;;4932049;29;20067;-89
2021/07/14 05:54:02;;;;;;;548.72;97.28;;;19.00;99.90;;;;;;4932736;29;20035;-88
2021/07/14 05:56:28;;;;;;;524.75;94.80;;;19.00;99.90;;;;;;4904483;29;20039;-91
2021/07/14 05:58:54;;;;;;;447.67;87.28;;;19.00;99.90;;;;;;4903372;29;20019;-91
2021/07/14 06:01:20;;;;;;;528.33;91.90;;;19.00;99.90;;;;;;4916476;29;20503;-89
2021/07/14 06:03:47;;;;;;;454.48;86.15;;;19.00;99.90;;;;;;4899806;29;20040;-88
2021/07/14 06:06:13;;;;;;;490.63;91.07;;;19.10;99.90;;;;;;4901457;29;20619;-89
2021/07/14 06:08:38;;;;;;;533.10;92.05;;;19.10;99.90;;;;;;4916074;29;20038;-91
2021/07/14 06:11:04;;;;;;;543.70;94.90;;;19.00;99.90;;;;;;4913817;29;20698;-89
2021/07/14 06:13:29;;;;;;;298.75;72.40;;;19.00;99.90;;;;;;4916506;29;20054;-90
2021/07/14 06:15:55;;;;;;;398.52;78.75;;;19.10;99.90;;;;;;4913256;29;20047;-89
2021/07/14 06:18:21;;;;;;;489.55;88.68;;;19.00;99.90;;;;;;4944843;29;20163;-90
2021/07/14 06:20:46;;;;;;;437.92;82.93;;;19.00;99.90;;;;;;4945458;29;20040;-89
2021/07/14 06:23:12;;;;;;;528.22;89.78;;;19.10;99.90;;;;;;4945193;29;20027;-90
2021/07/14 06:25:37;;;;;;;536.70;93.13;;;19.10;99.90;;;;;;4929396;29;20118;-88
2021/07/14 06:28:05;;;;;;;357.15;75.78;;;19.10;99.90;;;;;;4944452;29;20048;-89
2021/07/14 06:30:30;;;;;;;407.60;81.03;;;19.10;99.90;;;;;;4945187;29;20307;-89
2021/07/14 06:32:56;;;;;;;499.08;88.03;;;19.10;99.90;;;;;;4945106;29;20518;-89
2021/07/14 06:35:21;;;;;;;398.20;81.70;;;19.10;99.90;;;;;;4944970;29;20044;-88
2021/07/14 06:37:48;;;;;;;499.88;87.45;;;19.10;99.90;;;;;;4944360;29;20023;-89
2021/07/14 06:40:14;;;;;;;514.70;83.68;;;19.10;99.90;;;;;;4944552;29;20091;-90
2021/07/14 06:42:39;;;;;;;338.05;70.07;;;19.10;99.90;;;;;;4944821;29;20028;-89
2021/07/14 06:45:06;;;;;;;374.08;73.88;;;19.10;99.90;;;;;;4944405;29;20036;-90
2021/07/14 06:47:34;;;;;;;373.52;71.75;;;19.10;99.90;;;;;;4944332;29;20038;-89
2021/07/14 06:50:00;;;;;;;410.20;70.90;;;19.10;99.90;;;;;;4944698;29;20043;-88
2021/07/14 06:52:26;;;;;;;432.65;79.28;;;19.10;99.90;;;;;;4922378;29;20031;-90
2021/07/14 06:54:51;;;;;;;358.95;71.20;;;19.10;99.90;;;;;;4932336;29;20074;-91
2021/07/14 06:57:17;;;;;;;357.48;66.43;;;19.10;99.90;;;;;;4926488;29;20039;-88
2021/07/14 06:59:42;;;;;;;357.73;73.55;;;19.10;99.90;;;;;;4912660;29;20036;-91
2021/07/14 07:02:08;;;;;;;463.70;76.65;;;19.10;99.90;;;;;;4917172;29;20078;-89
2021/07/14 07:04:33;;;;;;;410.55;71.65;;;19.10;99.90;;;;;;4947511;29;20033;-89
2021/07/14 07:06:59;;;;;;;323.48;62.80;;;19.10;99.90;;;;;;4931868;29;20613;-90
2021/07/14 07:09:25;;;;;;;286.17;60.70;;;19.10;99.90;;;;;;4928232;29;20530;-90
2021/07/14 07:11:53;;;;;;;335.85;64.13;;;19.10;99.90;;;;;;4912795;29;20059;-90
2021/07/14 07:14:21;;;;;;;365.02;63.60;;;19.10;99.90;;;;;;4913017;29;20078;-91
2021/07/14 07:16:47;;;;;;;275.60;59.63;;;19.10;99.90;;;;;;4913346;29;20028;-88
2021/07/14 07:19:12;;;;;;;320.95;63.75;;;19.10;99.90;;;;;;4897131;29;20078;-88
2021/07/14 07:21:38;;;;;;;330.38;64.72;;;19.10;99.90;;;;;;4928748;29;20046;-88
2021/07/14 07:24:04;;;;;;;335.98;64.70;;;19.10;99.90;;;;;;4915642;29;20046;-88
2021/07/14 07:26:30;;;;;;;440.85;74.15;;;19.10;99.90;;;;;;4900322;29;20032;-89
2021/07/14 07:29:00;;;;;;;315.38;61.85;;;19.10;99.90;;;;;;4900178;29;20050;-88
2021/07/14 07:31:26;;;;;;;318.88;63.10;;;19.10;99.90;;;;;;4901963;29;20040;-89
2021/07/14 07:33:52;;;;;;;291.25;61.90;;;19.10;99.90;;;;;;4899990;29;20050;-88
2021/07/14 07:36:17;;;;;;;452.45;70.40;;;19.10;99.90;;;;;;4915772;29;20039;-88
2021/07/14 07:38:43;;;;;;;316.08;62.92;;;19.10;99.90;;;;;;4930258;29;20091;-88
2021/07/14 07:41:08;;;;;;;525.90;74.90;;;19.10;99.90;;;;;;4914729;29;20531;-88
2021/07/14 07:43:34;;;;;;;430.13;71.18;;;19.10;99.90;;;;;;4914989;29;20107;-88
2021/07/14 07:45:59;;;;;;;339.00;63.95;;;19.10;99.90;;;;;;4931057;29;20044;-87
2021/07/14 07:48:25;;;;;;;357.92;65.10;;;19.10;99.90;;;;;;4913012;29;20131;-88
2021/07/14 07:50:51;;;;;;;380.80;69.15;;;19.10;99.90;;;;;;4930316;29;20138;-88
2021/07/14 07:53:19;;;;;;;306.75;57.95;;;19.10;99.90;;;;;;4947037;29;20087;-87
2021/07/14 07:55:46;;;;;;;442.75;70.60;;;19.10;99.90;;;;;;4931359;29;20031;-88
2021/07/14 07:58:12;;;;;;;245.77;53.83;;;19.10;99.90;;;;;;4934764;29;20027;-89
2021/07/14 08:00:37;;;;;;;280.27;58.08;;;19.10;99.90;;;;;;4915000;29;20083;-88
2021/07/14 08:03:03;;;;;;;289.95;57.65;;;19.00;99.90;;;;;;4930764;29;20059;-89
2021/07/14 08:05:29;;;;;;;362.50;67.68;;;19.00;99.90;;;;;;4914790;29;20376;-89
2021/07/14 08:07:55;;;;;;;295.67;57.22;;;19.00;99.90;;;;;;4947219;29;20039;-88
2021/07/14 08:10:20;;;;;;;219.15;50.70;;;19.00;99.90;;;;;;4915286;29;20088;-90
2021/07/14 08:12:46;;;;;;;136.52;44.22;;;19.00;99.90;;;;;;4899084;29;20028;-89
2021/07/14 08:15:12;;;;;;;242.13;49.70;;;19.00;99.90;;;;;;4930747;29;20136;-88
2021/07/14 08:17:38;;;;;;;367.42;61.30;;;19.00;99.90;;;;;;4930362;29;20479;-87
2021/07/14 08:20:05;;;;;;;374.10;62.88;;;18.90;99.90;;;;;;4930448;29;20047;-87
2021/07/14 08:22:31;;;;;;;264.10;54.40;;;18.90;99.90;;;;;;4930538;29;20574;-88
2021/07/14 08:24:57;;;;;;;214.27;47.20;;;19.00;99.90;;;;;;4930814;29;20020;-89
2021/07/14 08:27:24;;;;;;;242.52;49.92;;;19.00;99.90;;;;;;4946481;29;20039;-87
2021/07/14 08:29:51;;;;;;;259.90;49.13;;;19.00;99.90;;;;;;4930619;29;20024;-88
2021/07/14 08:32:17;;;;;;;216.27;45.83;;;18.90;99.90;;;;;;4946173;29;20034;-88
2021/07/14 08:34:42;;;;;;;111.75;33.75;;;18.90;99.90;;;;;;4929777;29;20039;-89
2021/07/14 08:37:08;;;;;;;158.13;41.03;;;18.80;99.90;;;;;;4916116;29;20039;-88
2021/07/14 08:39:34;;;;;;;212.50;45.45;;;18.80;99.90;;;;;;4917732;29;20035;-86
2021/07/14 08:42:01;;;;;;;233.75;44.85;;;18.90;99.90;;;;;;4933639;29;20038;-87
2021/07/14 08:44:26;;;;;;;289.17;50.05;;;18.80;99.90;;;;;;4917975;29;20035;-87
2021/07/14 08:46:52;;;;;;;177.27;40.72;;;18.80;99.90;;;;;;4918253;29;20039;-88
2021/07/14 08:49:19;;;;;;;123.25;35.17;;;18.80;99.90;;;;;;4933825;29;20070;-88
2021/07/14 08:51:45;;;;;;;184.10;38.10;;;18.80;99.90;;;;;;4917705;29;20482;-87
2021/07/14 08:54:10;;;;;;;276.40;47.72;;;18.80;99.90;;;;;;4917452;29;20031;-87
2021/07/14 08:56:36;;;;;;;276.40;44.40;;;18.80;99.90;;;;;;4918046;29;20027;-88
2021/07/14 08:59:01;;;;;;;159.98;32.95;;;18.80;99.90;;;;;;4933158;29;20486;-87
2021/07/14 09:01:27;;;;;;;152.05;35.53;;;18.90;99.90;;;;;;4917532;29;20054;-89
2021/07/14 09:03:52;;;;;;;160.45;36.22;;;18.80;99.90;;;;;;4933638;29;20505;-87
2021/07/14 09:06:18;;;;;;;165.85;35.85;;;18.80;99.90;;;;;;4917674;29;20038;-90
2021/07/14 09:08:43;;;;;;;174.45;37.50;;;18.80;99.90;;;;;;4917358;29;20043;-89
2021/07/14 09:11:09;;;;;;;199.93;39.40;;;18.80;99.90;;;;;;4917521;29;20110;-87
2021/07/14 09:13:36;;;;;;;163.35;34.80;;;18.80;99.90;;;;;;4917700;29;20271;-88
2021/07/14 09:16:02;;;;;;;95.57;27.65;;;18.90;99.90;;;;;;4933837;29;20470;-88
2021/07/14 09:18:29;;;;;;;110.90;27.33;;;18.90;99.90;;;;;;4916943;29;20031;-88
2021/07/14 09:20:54;;;;;;;152.52;31.92;;;18.80;99.90;;;;;;4917511;29;20121;-88
2021/07/14 09:23:23;;;;;;;141.50;30.88;;;18.80;99.90;;;;;;4933121;29;20446;-88
2021/07/14 09:25:51;;;;;;;156.52;32.47;;;18.80;99.90;;;;;;4932991;29;20031;-88
2021/07/14 09:28:18;;;;;;;104.28;26.80;;;18.80;99.90;;;;;;4916931;29;20127;-89
2021/07/14 09:30:45;;;;;;;107.90;28.35;;;18.80;99.90;;;;;;4917431;29;20486;-88
2021/07/14 09:33:13;;;;;;;176.52;34.67;;;18.70;99.90;;;;;;4917625;29;20031;-89
2021/07/14 09:35:45;;;;;;;122.03;31.73;;;18.80;99.90;;;;;;4930018;29;20065;-88
2021/07/14 09:38:13;;;;;;;129.07;30.33;;;18.80;99.90;;;;;;4945489;29;20131;-87
2021/07/14 09:40:39;;;;;;;158.13;34.75;;;18.80;99.90;;;;;;4948688;29;20126;-88
2021/07/14 09:43:09;;;;;;;124.28;31.55;;;18.80;99.90;;;;;;4917278;29;20031;-89
2021/07/14 09:45:36;;;;;;;182.45;37.97;;;18.80;99.90;;;;;;4947591;28;20047;-88
2021/07/14 09:48:03;;;;;;;131.68;31.73;;;18.80;99.90;;;;;;4915499;29;20039;-87
2021/07/14 09:50:32;;;;;;;248.00;41.85;;;18.80;99.90;;;;;;4916703;29;20071;-88
2021/07/14 09:53:05;;;;;;;379.40;48.33;;;18.80;99.90;;;;;;4932431;29;20521;-87
2021/07/14 09:55:31;;;;;;;154.25;36.13;;;18.80;99.90;;;;;;4933606;29;20024;-87
2021/07/14 09:58:07;;;;;;;322.33;48.75;;;18.70;99.90;;;;;;4916537;29;20566;-87
2021/07/14 10:00:50;;;;;;;281.63;47.85;;;18.70;99.90;;;;;;4948230;29;20046;-86
2021/07/14 10:03:23;;;;;;;311.40;50.33;;;18.80;99.90;;;;;;4932667;28;20038;-88
2021/07/14 10:05:48;;;;;;;319.92;54.70;;;18.80;99.90;;;;;;4916953;29;20082;-88
2021/07/14 10:08:21;;;;;;;276.17;53.85;;;18.70;99.90;;;;;;4915903;29;20613;-87
2021/07/14 10:10:50;;;;;;;348.58;58.70;;;18.70;99.90;;;;;;4917641;29;20038;-88
2021/07/14 10:13:17;;;;;;;305.83;59.72;;;18.70;99.90;;;;;;4922324;29;20051;-87
2021/07/14 10:15:43;;;;;;;326.63;62.42;;;18.70;99.90;;;;;;4934885;29;20082;-89
2021/07/14 10:18:10;;;;;;;297.48;62.25;;;18.70;99.90;;;;;;4932482;29;20541;-87
2021/07/14 10:20:37;;;;;;;333.83;63.30;;;18.70;99.90;;;;;;4917080;29;20042;-89
2021/07/14 10:23:04;;;;;;;363.33;66.22;;;18.70;99.90;;;;;;4931759;28;20118;-88
2021/07/14 10:25:31;;;;;;;299.38;59.35;;;18.80;99.90;;;;;;4951933;28;20031;-87
2021/07/14 10:27:57;;;;;;;244.13;55.72;;;18.70;99.90;;;;;;4951635;28;20041;-88
2021/07/14 10:30:23;;;;;;;344.05;64.03;;;18.70;99.90;;;;;;4951522;28;20027;-87
2021/07/14 10:32:49;;;;;;;409.45;71.78;;;18.70;99.90;;;;;;4927012;29;20075;-87
2021/07/14 10:35:16;;;;;;;472.40;72.72;;;18.80;99.90;;;;;;4945665;29;20048;-88
2021/07/14 10:37:49;;;;;;;222.27;56.28;;;18.80;99.90;;;;;;4944963;29;20131;-90
2021/07/14 10:40:16;;;;;;;329.23;64.03;;;18.80;99.90;;;;;;4929210;29;20035;-88
2021/07/14 10:42:41;;;;;;;340.48;68.13;;;18.80;99.90;;;;;;4957470;28;20050;-88
2021/07/14 10:45:07;;;;;;;542.22;80.65;;;18.80;99.90;;;;;;4915835;29;20066;-87
2021/07/14 10:47:33;;;;;;;348.42;70.90;;;18.80;99.90;;;;;;4917603;29;20094;-88
2021/07/14 10:49:59;;;;;;;376.50;74.07;;;18.80;99.90;;;;;;4931955;29;20066;-88
2021/07/14 10:52:24;;;;;;;414.92;79.40;;;18.80;99.90;;;;;;4916706;29;20573;-88
2021/07/14 10:54:51;;;;;;;395.20;76.07;;;18.80;99.90;;;;;;4932378;29;20038;-88
2021/07/14 10:57:20;;;;;;;436.90;79.38;;;18.80;99.90;;;;;;4932466;29;20027;-87
2021/07/14 13:10:14;;;;;;;476.55;102.68;;;19.10;99.90;;;;;;660559;23;21639;-95
2021/07/14 13:12:52;;;;;;;439.63;98.97;;;19.10;99.90;;;;;;4856413;29;20093;-91
2021/07/14 13:18:52;;;;;;;488.88;104.50;;;19.10;99.90;;;;;;4854487;29;20037;-90
2021/07/14 13:21:22;;;;;;;327.70;96.00;;;19.10;99.90;;;;;;4853576;29;20029;-90
2021/07/14 13:23:48;;;;;;;561.22;111.45;;;19.10;99.90;;;;;;4843739;29;20030;-90
2021/07/14 13:26:20;;;;;;;561.53;109.00;;;19.10;99.90;;;;;;4842752;29;20040;-89
2021/07/14 13:28:47;;;;;;;473.30;104.95;;;19.10;99.90;;;;;;4840822;29;20536;-89
2021/07/14 13:31:17;;;;;;;533.38;112.35;;;19.10;99.90;;;;;;4841694;29;20037;-91
2021/07/14 13:33:45;;;;;;;550.33;108.72;;;19.10;99.90;;;;;;4842889;29;20025;-91
2021/07/14 13:36:20;;;;;;;568.88;114.53;;;19.10;99.90;;;;;;4841930;29;20022;-90
2021/07/14 13:38:49;;;;;;;612.10;120.60;;;19.10;99.90;;;;;;4841381;29;20030;-90
2021/07/14 13:41:17;;;;;;;533.63;116.38;;;19.10;99.90;;;;;;4843228;29;20307;-90
2021/07/14 13:43:58;;;;;;;652.83;127.45;;;19.10;99.90;;;;;;4858072;29;20045;-91
2021/07/14 13:46:39;;;;;;;489.48;108.88;;;19.10;99.90;;;;;;4842482;29;20476;-91
2021/07/14 13:49:05;;;;;;;;;;;19.10;99.90;;;;;;4856281;29;20401;-90
2021/07/14 13:51:39;;;;;;;458.70;106.47;;;19.10;99.90;;;;;;4848445;29;19912;-89
2021/07/14 13:57:40;;;;;;;334.48;91.57;;;19.10;99.90;;;;;;4846468;29;20536;-91
2021/07/14 14:00:15;;;;;;;570.22;116.40;;;19.20;99.90;;;;;;4853868;29;20080;-89
2021/07/14 14:02:57;;;;;;;354.08;99.63;;;19.10;99.90;;;;;;4852805;29;20148;-88
2021/07/14 14:05:22;;;;;;;;;;;19.10;99.90;;;;;;4854501;29;20046;-90
2021/07/14 14:07:48;;;;;;;520.38;107.10;;;19.10;99.90;;;;;;4852712;29;19923;-91
2021/07/14 14:10:20;;;;;;;456.17;104.90;;;19.10;99.90;;;;;;4853495;29;20034;-92
2021/07/14 14:12:57;;;;;;;475.27;106.82;;;19.10;99.90;;;;;;4866694;29;20026;-91
2021/07/14 14:15:28;;;;;;;572.20;115.78;;;19.10;99.90;;;;;;4851540;29;20037;-91
2021/07/14 14:17:57;;;;;;;609.53;117.95;;;19.20;99.90;;;;;;4853380;29;20367;-91
2021/07/14 14:20:26;;;;;;;284.75;91.30;;;19.20;99.90;;;;;;4852984;29;20038;-88
2021/07/14 14:22:52;;;;;;;327.83;94.38;;;19.10;99.90;;;;;;4853773;29;20034;-90
2021/07/14 14:25:22;;;;;;;403.27;99.57;;;19.10;99.90;;;;;;4854801;29;20082;-90
2021/07/14 14:27:59;;;;;;;536.17;108.10;;;19.10;99.90;;;;;;4852656;29;20573;-89
2021/07/14 14:30:27;;;;;;;363.17;99.18;;;19.20;99.90;;;;;;4850672;29;20095;-92
2021/07/14 14:32:54;;;;;;;600.50;119.25;;;19.10;99.90;;;;;;4855031;29;20557;-90
2021/07/14 14:35:21;;;;;;;370.23;95.97;;;19.10;99.90;;;;;;4856402;29;20029;-92
2021/07/14 14:37:47;;;;;;;448.92;101.13;;;19.20;99.90;;;;;;4855535;29;20137;-89